createdAt,value
2023-03-16T00:02:25.219Z,4.83
2023-03-16T00:04:52.496Z,4.60
2023-03-16T00:07:20.680Z,4.50
2023-03-16T00:09:47.936Z,4.13
2023-03-16T00:12:17.768Z,4.17
2023-03-16T00:14:49.617Z,4.33
2023-03-16T00:17:19.725Z,3.63
2023-03-16T00:19:55.343Z,4.20
2023-03-16T00:22:25.069Z,4.17
2023-03-16T00:24:52.887Z,4.43
2023-03-16T00:27:22.735Z,5.03
2023-03-16T00:29:55.610Z,5.47
2023-03-16T00:32:32.020Z,4.20
2023-03-16T00:34:59.612Z,6.97
2023-03-16T00:37:27.785Z,4.23
2023-03-16T00:39:58.101Z,4.50
2023-03-16T00:42:27.732Z,4.33
2023-03-16T00:44:57.683Z,4.30
2023-03-16T00:47:29.957Z,4.53
2023-03-16T00:49:57.233Z,3.80
2023-03-16T00:52:24.748Z,4.20
2023-03-16T00:54:54.712Z,4.10
2023-03-16T00:57:24.717Z,4.87
2023-03-16T00:59:52.690Z,4.00
2023-03-16T01:02:23.473Z,4.03
2023-03-16T01:04:51.931Z,4.47
2023-03-16T01:07:19.218Z,4.43
2023-03-16T01:09:46.450Z,4.50
2023-03-16T01:12:16.425Z,4.40
2023-03-16T01:14:45.929Z,4.40
2023-03-16T01:17:14.373Z,4.03
2023-03-16T01:19:42.254Z,4.73
2023-03-16T01:22:10.200Z,4.20
2023-03-16T01:24:38.150Z,4.40
2023-03-16T01:27:05.578Z,4.03
2023-03-16T01:29:33.228Z,4.47
2023-03-16T01:32:01.204Z,4.20
2023-03-16T01:34:28.656Z,4.23
2023-03-16T01:36:56.066Z,5.60
2023-03-16T01:39:23.421Z,4.00
2023-03-16T01:41:50.698Z,4.10
2023-03-16T01:44:22.585Z,4.57
2023-03-16T01:46:49.833Z,3.80
2023-03-16T01:49:36.639Z,4.10
2023-03-16T01:52:07.365Z,4.47
2023-03-16T01:54:48.208Z,4.43
2023-03-16T01:57:26.813Z,4.37
2023-03-16T01:59:54.080Z,4.33
2023-03-16T02:02:25.316Z,4.40
2023-03-16T02:04:58.842Z,4.93
2023-03-16T02:07:28.650Z,5.00
2023-03-16T02:10:00.209Z,4.27
2023-03-16T02:12:28.058Z,4.40
2023-03-16T02:14:55.397Z,4.47
2023-03-16T02:17:26.753Z,4.23
2023-03-16T02:20:16.244Z,4.17
2023-03-16T02:22:49.531Z,4.00
2023-03-16T02:25:18.811Z,4.77
2023-03-16T02:27:54.206Z,4.07
2023-03-16T02:30:21.908Z,4.37
2023-03-16T02:32:52.528Z,4.50
2023-03-16T02:35:20.010Z,4.83
2023-03-16T02:37:47.374Z,4.40
2023-03-16T02:40:26.371Z,4.50
2023-03-16T02:43:04.174Z,4.10
2023-03-16T02:45:36.479Z,5.10
2023-03-16T02:48:09.111Z,4.37
2023-03-16T02:50:37.068Z,5.13
2023-03-16T02:53:04.266Z,4.57
2023-03-16T02:55:31.430Z,5.57
2023-03-16T02:57:58.573Z,4.87
2023-03-16T03:00:26.084Z,4.67
2023-03-16T03:02:53.383Z,4.73
2023-03-16T03:05:21.350Z,9.13
2023-03-16T03:07:48.554Z,5.27
2023-03-16T03:10:15.848Z,4.50
2023-03-16T03:12:43.130Z,4.70
2023-03-16T03:15:10.622Z,4.30
2023-03-16T03:17:37.781Z,4.07
2023-03-16T03:20:13.908Z,4.50
2023-03-16T03:22:41.284Z,4.17
2023-03-16T03:25:08.945Z,4.20
2023-03-16T03:27:36.149Z,4.53
2023-03-16T03:30:04.207Z,5.90
2023-03-16T03:32:31.675Z,5.00
2023-03-16T03:34:58.889Z,6.47
2023-03-16T03:37:26.039Z,4.50
2023-03-16T03:39:53.590Z,5.17
2023-03-16T03:42:23.843Z,4.47
2023-03-16T03:44:52.672Z,4.83
2023-03-16T03:47:20.510Z,4.00
2023-03-16T03:49:47.731Z,4.60
2023-03-16T03:52:14.877Z,4.87
2023-03-16T03:54:42.027Z,4.87
2023-03-16T03:57:09.257Z,4.50
2023-03-16T03:59:42.545Z,5.00
2023-03-16T04:02:13.560Z,4.50
2023-03-16T04:04:41.203Z,4.30
2023-03-16T04:07:08.768Z,4.47
2023-03-16T04:09:36.226Z,4.10
2023-03-16T04:12:05.047Z,5.00
2023-03-16T04:14:33.417Z,4.90
2023-03-16T04:17:00.853Z,4.80
2023-03-16T04:19:28.598Z,4.70
2023-03-16T04:21:55.885Z,4.87
2023-03-16T04:24:23.040Z,4.70
2023-03-16T04:26:50.278Z,5.43
2023-03-16T04:29:20.979Z,4.83
2023-03-16T04:31:48.156Z,4.23
2023-03-16T04:34:15.438Z,6.00
2023-03-16T04:36:42.743Z,4.83
2023-03-16T04:39:10.637Z,4.70
2023-03-16T04:41:37.871Z,5.23
2023-03-16T04:44:05.097Z,4.70
2023-03-16T04:46:32.544Z,5.07
2023-03-16T04:48:59.831Z,5.30
2023-03-16T04:51:27.105Z,5.60
2023-03-16T04:53:54.356Z,4.97
2023-03-16T04:56:21.723Z,4.40
2023-03-16T04:58:50.096Z,4.47
2023-03-16T05:01:18.393Z,4.57
2023-03-16T05:03:45.766Z,5.53
2023-03-16T05:06:13.136Z,4.70
2023-03-16T05:08:40.675Z,4.60
2023-03-16T05:11:07.890Z,4.70
2023-03-16T05:13:35.189Z,4.40
2023-03-16T05:16:02.453Z,5.10
2023-03-16T05:18:29.637Z,4.87
2023-03-16T05:20:56.981Z,4.73
2023-03-16T05:23:24.551Z,4.63
2023-03-16T05:25:51.748Z,4.50
2023-03-16T05:28:19.411Z,4.83
2023-03-16T05:30:46.666Z,4.77
2023-03-16T05:33:13.897Z,5.90
2023-03-16T05:35:41.192Z,4.57
2023-03-16T05:38:09.934Z,4.83
2023-03-16T05:40:37.428Z,4.47
2023-03-16T05:43:04.821Z,4.43
2023-03-16T05:45:32.139Z,4.60
2023-03-16T05:47:59.292Z,4.23
2023-03-16T05:50:26.875Z,4.77
2023-03-16T05:52:54.477Z,4.17
2023-03-16T05:55:21.712Z,4.03
2023-03-16T05:57:48.893Z,4.43
2023-03-16T06:00:16.962Z,4.13
2023-03-16T06:02:47.300Z,4.70
2023-03-16T06:05:14.921Z,4.33
2023-03-16T06:07:42.141Z,5.47
2023-03-16T06:10:09.757Z,4.20
2023-03-16T06:12:36.952Z,3.80
2023-03-16T06:15:07.872Z,4.40
2023-03-16T06:17:35.974Z,4.27
2023-03-16T06:20:03.917Z,4.50
2023-03-16T06:22:31.098Z,4.50
2023-03-16T06:24:58.297Z,4.77
2023-03-16T06:27:26.567Z,4.30
2023-03-16T06:29:53.858Z,4.50
2023-03-16T06:32:22.018Z,4.60
2023-03-16T06:34:49.371Z,4.67
2023-03-16T06:37:16.614Z,4.67
2023-03-16T06:39:44.711Z,4.60
2023-03-16T06:42:11.960Z,4.20
2023-03-16T06:44:39.145Z,4.83
2023-03-16T06:47:06.506Z,4.70
2023-03-16T06:49:33.981Z,4.70
2023-03-16T06:52:03.313Z,4.40
2023-03-16T06:54:32.520Z,4.30
2023-03-16T06:56:59.723Z,4.47
2023-03-16T06:59:26.943Z,4.33
2023-03-16T07:01:54.150Z,4.30
2023-03-16T07:04:21.765Z,4.80
2023-03-16T07:06:49.106Z,4.37
2023-03-16T07:09:16.485Z,4.20
2023-03-16T07:11:44.806Z,4.30
2023-03-16T07:14:12.016Z,5.40
2023-03-16T07:16:39.241Z,4.38
2023-03-16T07:19:06.444Z,4.32
2023-03-16T07:21:39.370Z,4.73
2023-03-16T07:24:06.941Z,4.67
2023-03-16T07:26:34.208Z,4.00
2023-03-16T07:29:01.494Z,4.30
2023-03-16T07:31:28.853Z,4.37
2023-03-16T07:33:57.494Z,4.77
2023-03-16T07:36:24.695Z,4.47
2023-03-16T07:38:51.883Z,4.43
2023-03-16T07:41:19.100Z,3.80
2023-03-16T07:43:46.270Z,4.37
2023-03-16T07:46:13.845Z,3.97
2023-03-16T07:48:42.732Z,4.60
2023-03-16T07:51:11.686Z,4.27
2023-03-16T07:53:39.604Z,4.53
2023-03-16T07:56:07.489Z,4.23
2023-03-16T07:58:34.677Z,4.60
2023-03-16T08:01:01.895Z,4.37
2023-03-16T08:03:30.190Z,4.03
2023-03-16T08:05:57.444Z,4.37
2023-03-16T08:08:24.690Z,4.33
2023-03-16T08:10:53.826Z,4.37
2023-03-16T08:13:22.486Z,4.00
2023-03-16T08:15:55.967Z,4.17
2023-03-16T08:18:23.924Z,4.60
2023-03-16T08:20:51.083Z,5.03
2023-03-16T08:23:18.349Z,4.00
2023-03-16T08:25:46.209Z,4.70
2023-03-16T08:28:13.404Z,4.00
2023-03-16T08:30:51.597Z,4.00
2023-03-16T08:33:23.031Z,5.03
2023-03-16T08:35:50.839Z,4.20
2023-03-16T08:38:19.293Z,4.53
2023-03-16T08:40:49.943Z,4.37
2023-03-16T08:43:18.060Z,4.77
2023-03-16T08:45:48.671Z,4.10
2023-03-16T08:48:16.126Z,5.40
2023-03-16T08:50:44.193Z,4.47
2023-03-16T08:53:12.337Z,3.80
2023-03-16T08:55:41.518Z,4.43
2023-03-16T08:58:10.621Z,4.27
2023-03-16T09:00:38.544Z,4.30
2023-03-16T09:03:06.545Z,4.37
2023-03-16T09:05:34.152Z,4.37
2023-03-16T09:08:01.709Z,3.70
2023-03-16T09:10:29.309Z,3.90
2023-03-16T09:12:56.800Z,3.90
2023-03-16T09:15:24.065Z,3.60
2023-03-16T09:17:51.815Z,3.97
2023-03-16T09:20:26.408Z,5.30
2023-03-16T09:22:55.938Z,4.80
2023-03-16T09:25:24.192Z,4.77
2023-03-16T09:27:51.653Z,4.03
2023-03-16T09:30:19.905Z,4.10
2023-03-16T09:32:49.021Z,3.87
2023-03-16T09:35:16.357Z,4.03
2023-03-16T09:37:45.471Z,3.60
2023-03-16T09:40:26.648Z,3.70
2023-03-16T09:43:28.063Z,3.60
2023-03-16T09:46:13.858Z,3.93
2023-03-16T09:48:41.294Z,3.90
2023-03-16T09:51:20.468Z,3.57
2023-03-16T09:53:48.089Z,6.70
2023-03-16T09:56:26.368Z,3.80
2023-03-16T09:58:53.562Z,3.60
2023-03-16T10:01:44.802Z,4.17
2023-03-16T10:04:12.001Z,3.57
2023-03-16T10:06:59.537Z,4.17
2023-03-16T10:10:11.097Z,3.97
2023-03-16T10:12:47.325Z,3.50
2023-03-16T10:15:21.101Z,3.47
2023-03-16T10:17:50.070Z,3.73
2023-03-16T10:20:20.743Z,3.50
2023-03-16T10:22:50.857Z,3.93
2023-03-16T10:25:29.532Z,3.73
2023-03-16T10:27:57.407Z,5.23
2023-03-16T10:30:30.087Z,3.30
2023-03-16T10:33:02.349Z,3.90
2023-03-16T10:35:46.925Z,3.90
2023-03-16T10:38:30.968Z,3.30
2023-03-16T10:40:58.143Z,3.20
2023-03-16T10:43:25.735Z,3.40
2023-03-16T10:45:55.138Z,3.47
2023-03-16T10:48:22.389Z,3.57
2023-03-16T10:50:52.168Z,5.53
2023-03-16T10:53:26.548Z,3.53
2023-03-16T10:56:02.277Z,3.20
2023-03-16T10:58:34.418Z,3.23
2023-03-16T11:01:01.826Z,3.00
2023-03-16T11:03:32.316Z,2.88
2023-03-16T11:06:04.652Z,3.40
2023-03-16T11:08:37.475Z,3.37
2023-03-16T11:11:14.752Z,3.10
2023-03-16T11:13:45.410Z,3.00
2023-03-16T11:16:32.382Z,3.10
2023-03-16T11:19:05.853Z,3.53
2023-03-16T11:21:38.784Z,3.10
2023-03-16T11:24:14.203Z,3.30
2023-03-16T11:26:43.011Z,3.07
2023-03-16T11:29:11.187Z,2.87
2023-03-16T11:31:49.501Z,3.20
2023-03-16T11:34:23.670Z,2.90
2023-03-16T11:36:57.477Z,2.93
2023-03-16T11:39:46.873Z,3.10
2023-03-16T11:42:27.637Z,3.10
2023-03-16T11:45:16.133Z,4.63
2023-03-16T11:48:14.855Z,2.80
2023-03-16T11:50:45.145Z,2.70
2023-03-16T11:53:40.376Z,3.53
2023-03-16T11:56:22.492Z,2.83
2023-03-16T11:59:03.710Z,2.70
2023-03-16T12:02:00.219Z,2.70
2023-03-16T12:04:33.920Z,2.70
2023-03-16T12:07:45.747Z,2.90
2023-03-16T12:10:32.957Z,2.90
2023-03-16T12:13:30.800Z,2.70
2023-03-16T12:16:03.090Z,2.30
2023-03-16T12:18:44.013Z,2.40
2023-03-16T12:21:21.091Z,2.60
2023-03-16T12:23:59.728Z,2.80
2023-03-16T12:26:32.577Z,2.50
2023-03-16T12:29:00.794Z,2.97
2023-03-16T12:31:56.060Z,2.37
2023-03-16T12:34:44.364Z,2.70
2023-03-16T12:37:26.348Z,2.90
2023-03-16T12:40:10.695Z,2.40
2023-03-16T12:43:15.298Z,2.67
2023-03-16T12:46:04.440Z,2.63
2023-03-16T12:48:36.901Z,2.60
2023-03-16T12:51:05.609Z,2.80
2023-03-16T12:53:50.774Z,2.50
2023-03-16T12:56:32.580Z,2.73
2023-03-16T12:59:02.308Z,2.97
2023-03-16T13:01:41.509Z,2.87
2023-03-16T13:04:09.252Z,2.60
2023-03-16T13:06:37.267Z,2.17
2023-03-16T13:09:06.036Z,2.70
2023-03-16T13:11:50.353Z,2.60
2023-03-16T13:14:38.868Z,2.55
2023-03-16T13:17:17.576Z,2.73
2023-03-16T13:19:47.834Z,2.83
2023-03-16T13:22:27.965Z,2.30
2023-03-16T13:25:12.575Z,3.03
2023-03-16T13:27:40.900Z,2.70
2023-03-16T13:30:24.478Z,2.50
2023-03-16T13:33:01.817Z,2.97
2023-03-16T13:35:31.824Z,2.30
2023-03-16T13:38:06.077Z,2.40
2023-03-16T13:40:33.554Z,2.37
2023-03-16T13:43:02.075Z,2.13
2023-03-16T13:45:38.773Z,2.60
2023-03-16T13:48:06.072Z,2.60
2023-03-16T13:50:36.366Z,2.47
2023-03-16T13:53:10.366Z,2.50
2023-03-16T13:55:38.520Z,2.57
2023-03-16T13:58:05.908Z,2.50
2023-03-16T14:00:37.243Z,2.10
2023-03-16T14:03:16.303Z,2.20
2023-03-16T14:05:43.566Z,2.20
2023-03-16T14:08:23.544Z,2.23
2023-03-16T14:10:51.820Z,2.43
2023-03-16T14:13:30.341Z,2.40
2023-03-16T14:16:03.624Z,2.83
2023-03-16T14:18:53.767Z,2.23
2023-03-16T14:21:26.662Z,2.27
2023-03-16T14:23:58.155Z,2.70
2023-03-16T14:26:25.450Z,2.33
2023-03-16T14:29:03.457Z,2.47
2023-03-16T14:31:36.527Z,2.20
2023-03-16T14:34:08.665Z,2.50
2023-03-16T14:36:38.510Z,2.83
2023-03-16T14:39:17.015Z,2.97
2023-03-16T14:41:45.284Z,2.10
2023-03-16T14:44:25.055Z,2.17
2023-03-16T14:46:56.436Z,2.57
2023-03-16T14:49:33.204Z,2.27
2023-03-16T14:52:04.296Z,2.20
2023-03-16T14:54:31.463Z,2.33
2023-03-16T14:57:05.450Z,2.47
2023-03-16T14:59:33.588Z,2.00
2023-03-16T15:02:03.157Z,2.23
2023-03-16T15:04:34.274Z,2.27
2023-03-16T15:07:07.043Z,2.10
2023-03-16T15:09:40.090Z,2.17
2023-03-16T15:12:15.719Z,1.90
2023-03-16T15:15:01.636Z,1.93
2023-03-16T15:17:29.366Z,2.30
2023-03-16T15:19:57.153Z,2.10
2023-03-16T15:22:35.530Z,2.37
2023-03-16T15:25:09.210Z,3.03
2023-03-16T15:27:36.827Z,2.10
2023-03-16T15:30:04.098Z,2.50
2023-03-16T15:32:31.454Z,2.00
2023-03-16T15:34:58.739Z,2.30
2023-03-16T15:37:27.741Z,2.30
2023-03-16T15:39:55.064Z,2.30
2023-03-16T15:42:22.753Z,2.10
2023-03-16T15:44:49.926Z,2.27
2023-03-16T15:47:17.073Z,2.20
2023-03-16T15:49:48.310Z,2.47
2023-03-16T15:52:37.492Z,2.20
2023-03-16T15:55:08.374Z,2.43
2023-03-16T15:57:36.671Z,2.23
2023-03-16T16:00:04.477Z,2.50
2023-03-16T16:02:32.429Z,2.30
2023-03-16T16:04:59.798Z,2.30
2023-03-16T16:07:27.391Z,2.27
2023-03-16T16:09:54.592Z,2.70
2023-03-16T16:12:26.927Z,2.47
2023-03-16T16:14:56.256Z,2.27
2023-03-16T16:17:32.769Z,2.40
2023-03-16T16:20:23.767Z,2.20
2023-03-16T16:22:52.034Z,2.30
2023-03-16T16:25:21.376Z,2.50
2023-03-16T16:27:48.854Z,2.53
2023-03-16T16:30:30.932Z,2.40
2023-03-16T16:32:58.910Z,2.30
2023-03-16T16:35:28.417Z,2.43
2023-03-16T16:37:55.931Z,2.40
2023-03-16T16:40:26.025Z,2.10
2023-03-16T16:42:53.959Z,2.43
2023-03-16T16:45:23.518Z,2.30
2023-03-16T16:47:52.648Z,2.20
2023-03-16T16:50:25.569Z,2.70
2023-03-16T16:52:54.145Z,3.33
2023-03-16T16:55:25.089Z,2.50
2023-03-16T16:57:54.226Z,2.40
2023-03-16T17:00:25.945Z,2.67
2023-03-16T17:02:55.914Z,2.40
2023-03-16T17:05:25.709Z,2.73
2023-03-16T17:07:53.530Z,2.70
2023-03-16T17:10:26.047Z,2.53
2023-03-16T17:12:56.894Z,2.40
2023-03-16T17:15:29.773Z,2.43
2023-03-16T17:18:05.055Z,2.40
2023-03-16T17:20:32.262Z,2.37
2023-03-16T17:23:00.211Z,2.40
2023-03-16T17:25:28.377Z,2.30
2023-03-16T17:27:57.315Z,3.07
2023-03-16T17:30:27.768Z,4.30
2023-03-16T17:33:01.276Z,2.60
2023-03-16T17:35:28.672Z,2.63
2023-03-16T17:37:56.023Z,2.63
2023-03-16T17:40:25.559Z,2.53
2023-03-16T17:42:55.915Z,2.67
2023-03-16T17:45:26.236Z,2.83
2023-03-16T17:47:53.560Z,4.35
2023-03-16T17:50:26.128Z,2.80
2023-03-16T17:52:53.465Z,2.83
2023-03-16T17:55:24.359Z,4.53
2023-03-16T17:57:53.573Z,2.90
2023-03-16T18:00:35.937Z,2.93
2023-03-16T18:03:17.659Z,3.17
2023-03-16T18:05:45.261Z,2.70
2023-03-16T18:08:20.536Z,3.23
2023-03-16T18:10:51.639Z,3.17
2023-03-16T18:13:23.487Z,2.70
2023-03-16T18:15:52.054Z,2.50
2023-03-16T18:18:22.154Z,2.73
2023-03-16T18:20:50.988Z,2.87
2023-03-16T18:23:22.971Z,3.00
2023-03-16T18:25:52.690Z,3.20
2023-03-16T18:28:20.635Z,2.77
2023-03-16T18:30:52.498Z,2.77
2023-03-16T18:33:27.627Z,2.90
2023-03-16T18:35:57.200Z,3.67
2023-03-16T18:38:30.634Z,2.70
2023-03-16T18:41:03.342Z,3.10
2023-03-16T18:43:30.578Z,3.00
2023-03-16T18:45:57.739Z,2.93
2023-03-16T18:48:35.137Z,3.07
2023-03-16T18:51:03.258Z,3.53
2023-03-16T18:53:30.450Z,3.17
2023-03-16T18:55:57.866Z,3.83
2023-03-16T18:58:25.416Z,3.40
2023-03-16T19:00:57.673Z,3.00
2023-03-16T19:03:31.324Z,3.60
2023-03-16T19:05:59.858Z,2.90
2023-03-16T19:08:28.784Z,2.97
2023-03-16T19:11:01.844Z,3.17
2023-03-16T19:13:29.836Z,3.20
2023-03-16T19:15:57.942Z,3.20
2023-03-16T19:18:26.276Z,3.10
2023-03-16T19:20:55.170Z,3.20
2023-03-16T19:23:30.887Z,3.20
2023-03-16T19:25:58.497Z,3.00
2023-03-16T19:28:39.732Z,2.93
2023-03-16T19:31:25.429Z,3.10
2023-03-16T19:33:53.056Z,3.43
2023-03-16T19:36:23.246Z,3.67
2023-03-16T19:38:50.669Z,3.27
2023-03-16T19:41:23.922Z,3.70
2023-03-16T19:43:52.066Z,3.43
2023-03-16T19:46:19.634Z,3.10
2023-03-16T19:48:47.584Z,3.07
2023-03-16T19:51:16.148Z,2.83
2023-03-16T19:53:43.498Z,3.03
2023-03-16T19:56:14.344Z,3.10
2023-03-16T19:58:42.753Z,3.17
2023-03-16T20:01:17.553Z,4.67
2023-03-16T20:03:47.507Z,4.50
2023-03-16T20:06:19.348Z,3.00
2023-03-16T20:08:47.503Z,3.00
2023-03-16T20:11:23.532Z,3.13
2023-03-16T20:13:50.990Z,3.30
2023-03-16T20:16:30.667Z,3.43
2023-03-16T20:19:00.728Z,3.30
2023-03-16T20:21:28.288Z,3.40
2023-03-16T20:23:55.459Z,3.43
2023-03-16T20:26:25.336Z,3.13
2023-03-16T20:28:52.886Z,3.43
2023-03-16T20:31:29.689Z,3.33
2023-03-16T20:33:57.041Z,3.23
2023-03-16T20:36:24.513Z,3.63
2023-03-16T20:38:51.800Z,3.33
2023-03-16T20:41:18.944Z,3.63
2023-03-16T20:43:46.506Z,3.10
2023-03-16T20:46:24.601Z,3.63
2023-03-16T20:48:51.956Z,3.13
2023-03-16T20:51:19.213Z,4.10
2023-03-16T20:53:47.371Z,3.13
2023-03-16T20:56:20.728Z,3.33
2023-03-16T20:58:49.919Z,3.25
2023-03-16T21:01:21.323Z,3.33
2023-03-16T21:03:50.752Z,3.50
2023-03-16T21:06:27.544Z,3.10
2023-03-16T21:08:57.094Z,3.43
2023-03-16T21:11:25.398Z,3.43
2023-03-16T21:13:54.025Z,3.10
2023-03-16T21:16:21.621Z,3.83
2023-03-16T21:18:49.719Z,3.60
2023-03-16T21:21:18.818Z,3.07
2023-03-16T21:23:46.273Z,3.20
2023-03-16T21:26:22.966Z,3.70
2023-03-16T21:28:56.543Z,4.03
2023-03-16T21:31:24.709Z,3.20
2023-03-16T21:33:53.884Z,3.80
2023-03-16T21:36:23.590Z,3.20
2023-03-16T21:38:51.607Z,3.40
2023-03-16T21:41:18.876Z,3.20
2023-03-16T21:43:47.160Z,3.60
2023-03-16T21:46:22.790Z,3.20
2023-03-16T21:48:56.077Z,3.70
2023-03-16T21:51:30.172Z,3.50
2023-03-16T21:53:58.129Z,3.37
2023-03-16T21:56:26.222Z,3.20
2023-03-16T21:58:53.970Z,3.40
2023-03-16T22:01:32.292Z,3.67
2023-03-16T22:04:13.851Z,4.00
2023-03-16T22:06:42.282Z,3.20
2023-03-16T22:09:19.645Z,3.00
2023-03-16T22:11:47.067Z,3.40
2023-03-16T22:14:14.255Z,3.67
2023-03-16T22:16:41.770Z,3.43
2023-03-16T22:19:13.464Z,3.40
2023-03-16T22:21:44.620Z,3.50
2023-03-16T22:24:21.035Z,3.30
2023-03-16T22:26:50.115Z,3.67
2023-03-16T22:29:20.612Z,4.60
2023-03-16T22:31:48.202Z,3.77
2023-03-16T22:34:28.086Z,3.47
2023-03-16T22:36:55.801Z,4.33
2023-03-16T22:39:22.993Z,3.33
2023-03-16T22:41:50.294Z,3.40
2023-03-16T22:44:23.002Z,3.00
2023-03-16T22:46:50.821Z,3.30
2023-03-16T22:49:23.782Z,3.67
2023-03-16T22:51:52.305Z,3.37
2023-03-16T22:54:21.463Z,3.97
2023-03-16T22:56:48.957Z,3.63
2023-03-16T22:59:19.936Z,3.27
2023-03-16T23:01:49.231Z,3.67
2023-03-16T23:04:32.575Z,3.57
2023-03-16T23:07:00.146Z,3.77
2023-03-16T23:09:27.478Z,3.50
2023-03-16T23:11:55.103Z,3.80
2023-03-16T23:14:24.932Z,3.93
2023-03-16T23:16:52.753Z,3.60
2023-03-16T23:19:32.811Z,3.27
2023-03-16T23:22:05.217Z,4.77
2023-03-16T23:24:35.814Z,3.57
2023-03-16T23:27:03.910Z,3.80
2023-03-16T23:29:31.862Z,3.40
2023-03-16T23:31:59.111Z,4.27
2023-03-16T23:34:26.435Z,3.43
2023-03-16T23:36:53.655Z,3.20
2023-03-16T23:39:20.881Z,3.63
2023-03-16T23:41:49.685Z,3.20
2023-03-16T23:44:25.955Z,3.63
2023-03-16T23:46:53.279Z,3.43
2023-03-16T23:49:26.593Z,4.17
2023-03-16T23:51:56.191Z,3.40
2023-03-16T23:54:25.489Z,4.23
2023-03-16T23:56:52.826Z,3.93
2023-03-16T23:59:20.933Z,3.67
